Latest Weather Observations for Forrest

IDW60801

Issued at 6:03 am WST Thursday 19 January 2017 (issued every 30 minutes, with the page automatically refreshed every 10 minutes)

About weather observations | Map of weather stations | Latest weather observations for WA | Other Formats
Station Details ID: 011052 Name: FORREST Lat: -30.85 Lon: 128.11 Height: 159.0 m
Data from the previous 72 hours. | See also: Recent months at Forrest
Date/Time
WST
Temp
°C
App
Temp
°C
Dew
Point
°C
Rel
Hum
%
Delta-T
°C
Wind Press
QNH
hPa
Press
MSL
hPa
Rain since
9am
mm
Dir  Spd
km/h
Gust
km/h
Spd
kts
Gust
kts
19/06:00am 19.2 18.9 16.4 84 1.7 SSE 13 17 7 9 1007.4 1006.6 0.0
19/05:30am 19.1 18.4 16.5 85 1.6 SE 15 19 8 10 1007.1 - 0.0
19/05:00am 18.9 18.5 16.3 85 1.6 SSE 13 17 7 9 1006.7 - 0.0
19/04:30am 18.9 18.2 16.3 85 1.6 SE 15 19 8 10 1006.7 - 0.0
19/04:00am 18.8 18.0 16.2 85 1.6 SE 15 19 8 10 1006.6 - 0.0
19/03:30am 18.8 18.0 16.2 85 1.6 SE 15 20 8 11 1006.6 - 0.0
19/03:00am 18.8 17.6 16.2 85 1.6 SE 17 22 9 12 1006.6 1005.8 0.0
19/02:30am 18.9 17.7 16.1 84 1.7 ESE 17 22 9 12 1006.8 - 0.0
19/02:00am 18.8 17.2 16.0 84 1.7 ESE 19 24 10 13 1007.1 - 0.0
19/01:30am 18.9 17.1 16.1 84 1.7 ESE 20 28 11 15 1007.4 - 0.0
19/01:00am 18.8 16.6 16.0 84 1.7 ESE 22 30 12 16 1008.0 - 0.0
19/12:30am 18.9 16.3 15.9 83 1.8 ESE 24 30 13 16 1008.2 - 0.0
19/12:00am 18.9 16.3 15.9 83 1.8 ESE 24 32 13 17 1008.5 1007.7 0.0
 
Date/Time
WST
Temp
°C
App
Temp
°C
Dew
Point
°C
Rel
Hum
%
Delta-T
°C
Wind Press
QNH
hPa
Press
MSL
hPa
Rain since
9am
mm
Dir  Spd
km/h
Gust
km/h
Spd
kts
Gust
kts
18/11:30pm 18.8 15.8 15.9 83 1.7 SE 26 32 14 17 1008.8 - 0.0
18/11:00pm 18.8 15.7 15.7 82 1.8 ESE 26 32 14 17 1009.6 - 0.0
18/10:30pm 18.7 15.6 15.6 82 1.8 SE 26 35 14 19 1010.1 - 0.0
18/10:00pm 18.7 16.4 15.6 82 1.8 SE 22 35 12 19 1010.6 - 0.0
18/09:30pm 18.7 15.2 15.4 81 2.0 SE 28 35 15 19 1010.7 - 0.0
18/09:00pm 18.8 15.2 15.3 80 2.1 SE 28 35 15 19 1010.7 1009.9 0.0
18/08:30pm 19.1 16.0 15.6 80 2.1 SE 26 33 14 18 1010.8 - 0.0
18/08:00pm 19.2 14.9 15.5 79 2.2 SE 32 39 17 21 1010.5 - 0.0
18/07:30pm 19.6 16.5 15.5 77 2.4 SE 26 37 14 20 1010.5 - 0.0
18/07:00pm 20.0 15.7 15.4 75 2.7 SE 32 43 17 23 1010.6 - 0.0
18/06:30pm 20.5 16.0 15.5 73 3.0 SE 33 43 18 23 1010.5 - 0.0
18/06:00pm 21.2 16.4 15.5 70 3.4 SE 35 46 19 25 1010.4 1009.6 0.0
18/05:30pm 21.9 16.7 15.5 67 3.8 SSE 37 50 20 27 1010.3 - 0.0
18/05:00pm 22.7 17.5 15.5 64 4.3 SSE 37 50 20 27 1010.2 - 0.0
18/04:49pm 23.2 18.4 15.5 62 4.7 SSE 35 54 19 29 1010.3 - 0.0
18/04:30pm 23.5 18.3 15.5 60 4.8 SSE 37 52 20 28 1010.1 - 0.0
18/04:00pm 24.6 19.8 15.5 57 5.5 SSE 35 50 19 27 1009.9 - 0.0
18/03:30pm 27.0 23.0 16.3 52 6.6 SSE 32 46 17 25 1010.3 - 0.0
18/03:00pm 27.4 23.5 15.4 48 7.4 SE 30 41 16 22 1010.3 1009.5 0.0
18/02:30pm 26.5 22.1 15.2 49 6.9 SE 32 48 17 26 1010.4 - 0.0
18/02:23pm 26.6 22.6 15.3 50 6.9 SE 30 48 16 26 1010.4 - 0.0
18/02:00pm 26.7 22.5 15.7 51 6.8 SE 32 43 17 23 1010.8 - 0.0
18/01:30pm 26.1 21.6 15.5 52 6.5 SE 33 54 18 29 1011.1 - 0.0
18/01:25pm 26.4 21.9 15.4 50 6.7 SE 33 54 18 29 1011.0 - 0.0
18/01:00pm 26.7 22.9 15.7 51 6.8 ESE 30 41 16 22 1011.4 - 0.0
18/12:30pm 26.6 22.3 15.3 50 6.9 SE 32 43 17 23 1011.6 - 0.0
18/12:00pm 25.7 21.6 16.0 55 6.0 SE 32 46 17 25 1012.3 1011.5 0.0
18/11:30am 25.2 20.4 15.5 55 5.9 SE 35 43 19 23 1012.6 - 0.0
18/11:00am 24.1 19.8 15.3 58 5.3 SE 32 43 17 23 1012.9 - 0.0
18/10:30am 22.9 18.7 15.7 64 4.4 SE 32 43 17 23 1013.2 - 0.0
18/10:00am 22.7 18.2 16.5 68 3.8 SE 35 50 19 27 1013.5 - 0.0
18/09:30am 21.7 17.6 16.4 72 3.2 SE 33 39 18 21 1013.8 - 0.0
18/09:00am 20.6 16.6 16.2 76 2.7 SE 32 39 17 21 1014.1 1013.3 0.0
18/08:30am 19.8 15.3 16.3 80 2.1 ESE 35 43 19 23 1014.4 - 0.0
18/08:00am 19.4 14.8 16.2 82 1.9 SE 35 41 19 22 1014.4 - 0.0
18/07:30am 19.0 14.8 16.2 84 1.7 SE 33 39 18 21 1014.6 - 0.0
18/07:00am 19.0 14.7 16.0 83 1.8 SE 33 39 18 21 1014.9 - 0.0
18/06:30am 18.6 14.5 16.0 85 1.6 SE 32 41 17 22 1014.9 - 0.0
18/06:00am 18.4 14.4 16.2 87 1.3 SE 32 41 17 22 1014.7 1013.9 0.0
18/05:30am 18.4 14.7 16.0 86 1.4 SE 30 37 16 20 1014.6 - 0.0
18/05:00am 18.3 14.5 15.7 85 1.5 SE 30 37 16 20 1014.4 - 0.0
18/04:30am 18.2 14.8 15.8 86 1.4 SE 28 37 15 20 1014.1 - 0.0
18/04:00am 18.3 14.9 15.7 85 1.5 SE 28 39 15 21 1013.6 - 0.0
18/03:30am 18.2 14.8 15.8 86 1.4 SE 28 37 15 20 1013.2 - 0.0
18/03:00am 18.1 13.9 15.7 86 1.4 SE 32 41 17 22 1012.7 1011.9 0.0
18/02:30am 18.1 14.2 15.5 85 1.5 SE 30 37 16 20 1012.6 - 0.0
18/02:00am 18.0 14.1 15.4 85 1.5 SE 30 41 16 22 1012.6 - 0.0
18/01:30am 18.0 13.7 15.4 85 1.5 SSE 32 41 17 22 1012.5 - 0.0
18/01:00am 18.2 13.8 15.1 82 1.8 SSE 32 41 17 22 1012.9 - 0.0
18/12:30am 18.5 14.9 15.2 81 1.9 SSE 28 39 15 21 1013.8 - 0.0
18/12:00am 18.6 16.2 15.3 81 1.9 SSE 22 30 12 16 1014.9 1014.1 0.0
 
Date/Time
WST
Temp
°C
App
Temp
°C
Dew
Point
°C
Rel
Hum
%
Delta-T
°C
Wind Press
QNH
hPa
Press
MSL
hPa
Rain since
9am
mm
Dir  Spd
km/h
Gust
km/h
Spd
kts
Gust
kts
17/11:30pm 18.6 15.3 15.1 80 2.1 SSE 26 35 14 19 1014.4 - 0.0
17/11:00pm 18.9 15.2 15.0 78 2.3 SSE 28 35 15 19 1014.3 - 0.0
17/10:30pm 18.8 15.0 14.7 77 2.4 SSE 28 37 15 20 1014.4 - 0.0
17/10:00pm 18.8 14.5 14.5 76 2.5 SSE 30 37 16 20 1014.2 - 0.0
17/09:30pm 18.9 14.6 14.4 75 2.6 SSE 30 41 16 22 1014.4 - 0.0
17/09:00pm 19.0 14.5 13.8 72 3.0 SSE 30 41 16 22 1014.2 1013.4 0.0
17/08:30pm 19.1 15.0 13.9 72 3.0 SSE 28 43 15 23 1013.9 - 0.0
17/08:17pm 19.1 14.6 13.9 72 3.0 SSE 30 48 16 26 1013.8 - 0.0
17/08:00pm 19.1 14.3 13.9 72 3.0 SSE 32 43 17 23 1013.6 - 0.0
17/07:30pm 19.3 14.0 14.3 73 2.9 SSE 35 50 19 27 1013.1 - 0.0
17/07:02pm 19.5 14.1 15.0 75 2.7 SSE 37 56 20 30 1012.8 - 0.0
17/07:00pm 19.5 13.7 15.0 75 2.7 SSE 39 56 21 30 1012.7 - 0.0
17/06:30pm 19.7 13.3 15.4 76 2.6 SSE 43 54 23 29 1012.3 - 0.0
17/06:00pm 19.8 14.7 15.7 77 2.5 SSE 37 54 20 29 1012.0 1011.2 0.0
17/05:55pm 19.9 14.7 15.5 76 2.6 SSE 37 56 20 30 1011.9 - 0.0
17/05:30pm 20.3 14.1 15.9 76 2.6 SSE 43 57 23 31 1011.3 - 0.0
17/05:00pm 21.1 15.7 15.9 72 3.1 SSE 39 52 21 28 1011.1 - 0.0
17/04:30pm 21.3 15.1 16.0 72 3.2 SSE 43 57 23 31 1010.8 - 0.0
17/04:00pm 21.9 15.8 16.2 70 3.5 S 43 57 23 31 1010.5 - 0.0
17/03:51pm 22.3 16.2 16.1 68 3.8 SSE 43 61 23 33 1010.2 - 0.0
17/03:30pm 23.1 17.8 16.2 65 4.2 S 39 54 21 29 1010.3 - 0.0
17/03:00pm 24.4 19.0 17.1 63 4.6 SSE 41 56 22 30 1010.0 1009.2 0.0
17/02:30pm 25.2 19.1 16.3 57 5.5 S 43 56 23 30 1009.7 - 0.0
17/02:09pm 25.4 20.3 16.8 59 5.3 SSE 39 57 21 31 1009.6 - 0.0
17/02:00pm 26.1 21.3 16.6 55 5.9 S 37 52 20 28 1009.4 - 0.0
17/01:30pm 26.4 21.2 16.6 55 6.1 SSE 39 56 21 30 1009.1 - 0.0
17/01:00pm 27.0 22.6 16.6 53 6.5 S 35 48 19 26 1009.4 - 0.0
17/12:34pm 27.5 23.2 16.8 52 6.7 S 35 54 19 29 1009.2 - 0.0
17/12:30pm 28.0 23.2 16.6 50 7.1 S 37 50 20 27 1009.1 - 0.0
17/12:17pm 28.5 23.7 16.7 48 7.4 S 37 56 20 30 1009.3 - 0.0
17/12:00pm 28.0 22.8 16.6 50 7.1 S 39 52 21 28 1009.4 1008.6 0.0
17/11:30am 27.4 22.9 17.3 54 6.4 S 37 50 20 27 1009.4 - 0.0
17/11:00am 27.4 22.8 17.0 53 6.5 S 37 50 20 27 1009.4 - 0.0
17/10:30am 27.7 23.3 17.5 53 6.5 S 37 50 20 27 1009.1 - 0.0
17/10:00am 25.6 20.8 16.7 58 5.5 S 37 54 20 29 1009.3 - 0.0
17/09:30am 25.2 20.7 17.4 62 4.9 S 37 48 20 26 1009.2 - 0.0
17/09:28am 25.4 20.8 17.1 60 5.2 S 37 56 20 30 1009.2 - 0.0
17/09:00am 24.8 19.9 17.3 63 4.7 S 39 52 21 28 1008.9 1008.1 0.0
17/08:30am 24.5 18.9 17.5 65 4.4 SSW 43 56 23 30 1008.8 - 0.0
17/08:00am 23.5 17.9 17.5 69 3.7 SSW 43 54 23 29 1008.9 - 0.0
17/07:30am 22.9 17.5 17.8 73 3.2 SSW 43 54 23 29 1009.1 - 0.0
17/07:00am 22.2 17.1 17.8 76 2.7 SW 41 50 22 27 1009.1 - 0.0
17/06:30am 21.9 18.0 17.9 78 2.5 SW 35 43 19 23 1009.0 - 0.0
17/06:00am 21.6 19.0 17.8 79 2.4 SW 28 41 15 22 1008.1 1007.3 0.0
17/05:30am 21.7 18.3 18.1 80 2.3 S 33 44 18 24 1006.8 - 0.0
17/05:00am 21.9 18.7 18.1 79 2.4 S 32 43 17 23 1006.1 - 0.0
17/04:30am 22.3 18.8 17.9 76 2.8 S 33 44 18 24 1005.2 - 0.0
17/04:00am 23.1 20.0 17.6 71 3.4 SSW 30 37 16 20 1005.2 - 0.0
17/03:30am 23.7 20.9 17.4 68 3.9 SSW 28 39 15 21 1004.8 - 0.0
17/03:00am 24.5 21.1 17.7 66 4.3 SSW 32 37 17 20 1004.3 1003.5 0.0
17/02:30am 25.6 22.6 16.7 58 5.5 SSW 28 37 15 20 1004.5 - 0.0
17/02:00am 26.9 23.6 14.0 45 7.7 S 24 32 13 17 1004.1 - 0.0
17/01:30am 28.0 24.7 12.8 39 9.0 S 22 30 12 16 1004.0 - 0.0
17/01:00am 28.8 25.5 12.7 37 9.5 SSW 22 30 12 16 1004.0 - 0.0
17/12:30am 29.7 26.5 13.0 35 10.0 SW 22 30 12 16 1004.1 - 0.0
17/12:09am 29.4 25.5 14.4 40 9.1 SW 28 37 15 20 1004.1 - 0.0
17/12:00am 29.8 29.5 14.4 39 9.4 SSE 9 11 5 6 1003.8 1003.0 0.0
 
Date/Time
WST
Temp
°C
App
Temp
°C
Dew
Point
°C
Rel
Hum
%
Delta-T
°C
Wind Press
QNH
hPa
Press
MSL
hPa
Rain since
9am
mm
Dir  Spd
km/h
Gust
km/h
Spd
kts
Gust
kts
16/11:30pm 30.1 29.2 13.8 37 9.9 SSE 11 13 6 7 1003.7 - 0.0
16/11:00pm 30.4 28.8 12.8 34 10.5 SE 13 15 7 8 1004.0 - 0.0
16/10:30pm 30.5 29.2 12.4 33 10.7 SE 11 17 6 9 1004.4 - 0.0
16/10:00pm 30.8 29.0 12.2 32 11.0 SE 13 15 7 8 1004.6 - 0.0
16/09:30pm 31.4 29.1 11.7 29 11.6 SE 15 20 8 11 1004.8 - 0.0
16/09:00pm 31.9 28.5 11.1 28 12.2 SE 20 28 11 15 1004.3 1003.5 0.0
16/08:30pm 32.4 29.1 11.6 28 12.3 SSE 20 28 11 15 1004.3 - 0.0
16/08:00pm 33.1 29.8 11.6 27 12.7 SE 20 26 11 14 1004.0 - 0.0
16/07:30pm 33.6 30.6 12.6 28 12.6 SSE 20 26 11 14 1003.9 - 0.0
16/07:00pm 36.4 35.6 17.0 31 12.5 NNE 17 19 9 10 1003.6 - 0.0
16/06:30pm 37.2 36.2 16.7 29 13.2 NNE 17 19 9 10 1003.5 - 0.0
16/06:00pm 38.3 38.6 16.0 27 14.4 N 9 13 5 7 1003.2 1002.4 0.0
16/05:30pm 38.5 39.2 16.2 27 14.4 N 7 11 4 6 1003.0 - 0.0
16/05:00pm 38.8 38.6 15.8 25 14.7 NW 11 17 6 9 1002.9 - 0.0
16/04:30pm 39.8 39.4 16.1 25 15.3 N 13 19 7 10 1002.8 - 0.0
16/04:00pm 39.3 38.3 15.6 24 15.2 N 15 24 8 13 1003.0 - 0.0
16/03:30pm 39.3 37.1 15.0 24 15.4 N 20 28 11 15 1003.1 - 0.0
16/03:00pm 39.6 38.1 15.2 23 15.6 N 17 26 9 14 1003.3 1002.5 0.0
16/02:30pm 39.8 38.0 15.4 23 15.6 NNW 19 28 10 15 1003.6 - 0.0
16/02:00pm 39.2 37.3 14.3 23 15.7 NW 17 28 9 15 1003.9 - 0.0
16/01:30pm 40.0 37.5 14.2 21 16.2 N 20 30 11 16 1004.0 - 0.0
16/01:00pm 40.4 38.1 14.6 22 16.4 NNW 20 35 11 19 1004.4 - 0.0
16/12:30pm 40.4 37.3 14.6 22 16.4 NNW 24 37 13 20 1004.5 - 0.0
16/12:00pm 40.0 36.3 14.9 22 16.0 NW 28 41 15 22 1004.7 1003.9 0.0
16/11:30am 39.3 34.4 13.7 22 16.0 N 32 44 17 24 1005.4 - 0.0
16/11:00am 39.3 34.8 15.0 24 15.4 N 32 43 17 23 1005.6 - 0.0
16/10:30am 38.1 33.3 14.0 24 15.0 N 32 39 17 21 1005.9 - 0.0
16/10:00am 37.3 32.1 12.7 23 15.0 N 32 41 17 22 1006.3 - 0.0
16/09:30am 35.7 29.7 12.0 24 14.3 N 35 44 19 24 1006.7 - 0.0
16/09:00am 34.6 29.1 12.3 26 13.4 N 33 39 18 21 1006.9 1006.1 0.0
16/08:30am 32.9 28.1 13.0 30 12.0 N 30 41 16 22 1007.2 - 0.0
16/08:00am 31.1 27.0 13.8 34 10.5 N 28 33 15 18 1007.7 - 0.0
16/07:30am 28.9 25.5 13.6 39 9.2 NNE 24 33 13 18 1008.0 - 0.0
16/07:00am 27.8 25.0 14.4 43 8.1 NE 22 30 12 16 1008.4 - 0.0
16/06:30am 24.7 23.1 15.1 55 5.8 NE 17 22 9 12 1008.5 - 0.0

Other Formats:

Comma delimited format used in spreadsheet applications
http://www.bom.gov.au/fwo/IDW60801/IDW60801.95646.axf

JavaScript Object Notation format (JSON) in row-major order
http://www.bom.gov.au/fwo/IDW60801/IDW60801.95646.json